Time;durP1;ratioP1;P1;durP2;ratioP2;P2;SDS_P1;SDS_P2;PMS_P1;PMS_P2;Temp;Humidity;BMP_temperature;BMP_pressure;BME280_temperature;BME280_humidity;BME280_pressure;Samples;Min_cycle;Max_cycle;Signal;HPM_P1;HPM_P2
2021/12/24 00:01:30;;;;;;;35.53;13.30;;;4.90;97.30;;;;;;5075297;28;20480;-86
2021/12/24 00:03:55;;;;;;;38.23;14.27;;;4.90;97.30;;;;;;5063557;28;20417;-82
2021/12/24 00:06:21;;;;;;;36.57;14.30;;;4.90;97.30;;;;;;5055869;28;20409;-82
2021/12/24 00:08:47;;;;;;;41.70;13.27;;;4.90;97.30;;;;;;5060112;28;20289;-86
2021/12/24 00:37:32;;;;;;;31.57;12.33;;;5.00;97.30;;;;;;5051089;28;20477;-88
2021/12/24 00:42:29;;;;;;;27.30;12.77;;;5.10;97.30;;;;;;5063083;28;20230;-87
2021/12/24 00:44:55;;;;;;;37.40;13.73;;;5.10;97.30;;;;;;5067147;28;20695;-89
2021/12/24 00:47:20;;;;;;;31.87;12.97;;;5.10;97.30;;;;;;5062928;28;20498;-85
2021/12/24 00:49:46;;;;;;;26.87;11.00;;;5.20;97.30;;;;;;5054201;28;20177;-85
2021/12/24 00:52:44;;;;;;;28.40;11.57;;;5.20;97.30;;;;;;5054464;28;20175;-88
2021/12/24 00:55:09;;;;;;;27.63;10.67;;;5.30;97.30;;;;;;5071936;28;20198;-88
2021/12/24 00:57:40;;;;;;;28.33;11.70;;;5.30;97.30;;;;;;5058765;28;20775;-88
2021/12/24 01:00:11;;;;;;;26.67;10.70;;;5.40;97.30;;;;;;5066636;28;20432;-88
2021/12/24 01:02:37;;;;;;;23.30;9.97;;;5.40;97.30;;;;;;5078224;28;20412;-89
2021/12/24 01:05:03;;;;;;;28.30;11.53;;;5.40;97.30;;;;;;5077895;28;20419;-89
2021/12/24 01:07:29;;;;;;;23.60;10.20;;;5.40;97.30;;;;;;5077772;28;20230;-86
2021/12/24 01:09:54;;;;;;;24.63;10.53;;;5.40;97.30;;;;;;5078056;28;20472;-88
2021/12/24 01:12:20;;;;;;;28.73;10.77;;;5.40;97.30;;;;;;5078013;28;20179;-84
2021/12/24 01:14:48;;;;;;;22.63;10.10;;;5.40;97.30;;;;;;5078286;28;20579;-84
2021/12/24 01:17:39;;;;;;;31.60;10.43;;;5.40;97.30;;;;;;5079735;28;20182;-85
2021/12/24 01:20:33;;;;;;;23.10;10.70;;;5.50;97.30;;;;;;5078899;28;20434;-90
2021/12/24 01:25:41;;;;;;;26.00;9.07;;;5.50;97.30;;;;;;5096167;28;20403;-86
2021/12/24 01:39:19;;;;;;;21.90;8.83;;;5.70;97.30;;;;;;5096145;28;20442;-85
2021/12/24 01:44:27;;;;;;;23.97;9.27;;;5.70;97.30;;;;;;5096102;28;20427;-86
2021/12/24 01:46:55;;;;;;;30.10;10.53;;;5.70;97.30;;;;;;5077440;28;20460;-86
2021/12/24 01:49:20;;;;;;;22.00;9.43;;;5.70;97.30;;;;;;5077303;28;20955;-85
2021/12/24 01:51:46;;;;;;;20.00;10.00;;;5.80;97.30;;;;;;5077169;28;20428;-86
2021/12/24 01:54:12;;;;;;;21.60;9.60;;;5.80;97.30;;;;;;5077119;28;20167;-86
2021/12/24 01:56:38;;;;;;;24.87;10.57;;;5.80;97.30;;;;;;5077015;28;20788;-86
2021/12/24 01:59:04;;;;;;;26.17;10.27;;;5.80;97.30;;;;;;5076843;28;20187;-85
2021/12/24 02:01:29;;;;;;;25.43;10.80;;;5.80;97.30;;;;;;5076810;28;20461;-85
2021/12/24 02:03:55;;;;;;;23.73;11.23;;;5.80;97.30;;;;;;5077456;28;20783;-85
2021/12/24 02:06:21;;;;;;;24.90;11.80;;;5.80;97.30;;;;;;5094214;28;20250;-87
2021/12/24 02:08:47;;;;;;;23.23;10.30;;;5.80;97.30;;;;;;5076749;28;20202;-89
2021/12/24 02:11:12;;;;;;;25.37;10.23;;;5.90;97.30;;;;;;5076864;28;20186;-88
2021/12/24 02:13:41;;;;;;;26.17;10.50;;;5.90;97.30;;;;;;5076795;28;20776;-85
2021/12/24 02:16:18;;;;;;;26.63;9.20;;;5.90;97.30;;;;;;5078042;28;20174;-84
2021/12/24 02:29:56;;;;;;;23.70;9.87;;;5.90;97.30;;;;;;5095388;28;20419;-85
2021/12/24 02:32:22;;;;;;;19.60;9.83;;;6.00;97.30;;;;;;5077051;28;20852;-84
2021/12/24 02:34:48;;;;;;;22.73;9.00;;;6.00;97.30;;;;;;5076829;28;20257;-85
2021/12/24 02:37:14;;;;;;;20.50;9.83;;;6.00;97.30;;;;;;5077340;28;20515;-88
2021/12/24 02:39:39;;;;;;;21.43;8.60;;;6.00;97.30;;;;;;5094620;28;20500;-86
2021/12/24 02:42:17;;;;;;;22.43;9.40;;;6.00;97.30;;;;;;5076330;28;20643;-85
2021/12/24 02:44:45;;;;;;;20.80;8.10;;;6.00;97.30;;;;;;5076798;28;20170;-83
2021/12/24 02:47:35;;;;;;;27.80;10.30;;;6.10;97.30;;;;;;5076768;28;20459;-87
2021/12/24 02:55:13;;;;;;;20.50;8.77;;;6.10;97.30;;;;;;5094751;28;20400;-84
2021/12/24 02:57:39;;;;;;;21.97;9.03;;;6.10;97.30;;;;;;5076730;28;21169;-86
2021/12/24 03:00:15;;;;;;;23.93;9.83;;;6.10;97.30;;;;;;5077013;28;20459;-84
2021/12/24 03:02:44;;;;;;;16.63;7.80;;;6.10;97.30;;;;;;5076353;28;20417;-83
2021/12/24 03:05:12;;;;;;;20.30;9.27;;;6.10;97.30;;;;;;5094601;28;20397;-86
2021/12/24 03:07:38;;;;;;;20.23;9.03;;;6.10;97.30;;;;;;5076106;28;20541;-84
2021/12/24 03:10:05;;;;;;;18.97;8.03;;;6.10;97.30;;;;;;5076009;28;20504;-85
2021/12/24 03:12:31;;;;;;;20.20;8.60;;;6.20;97.30;;;;;;5076564;28;20683;-85
2021/12/24 03:14:57;;;;;;;22.23;10.20;;;6.30;97.30;;;;;;5076224;28;20413;-84
2021/12/24 03:17:25;;;;;;;20.07;8.70;;;6.30;97.30;;;;;;5075997;28;20410;-85
2021/12/24 03:19:53;;;;;;;19.33;9.40;;;6.30;97.30;;;;;;5077223;28;20178;-86
2021/12/24 03:24:53;;;;;;;20.83;9.13;;;6.30;97.30;;;;;;5094307;28;20444;-84
2021/12/24 03:27:18;;;;;;;19.67;8.73;;;6.30;97.30;;;;;;5075650;28;20547;-84
2021/12/24 03:29:44;;;;;;;19.70;8.37;;;6.30;97.30;;;;;;5093912;28;20179;-84
2021/12/24 03:32:09;;;;;;;18.27;8.53;;;6.30;97.30;;;;;;5076712;28;20175;-84
2021/12/24 03:34:35;;;;;;;21.70;8.20;;;6.30;97.30;;;;;;5075773;28;20174;-86
2021/12/24 03:37:03;;;;;;;20.03;8.90;;;6.30;97.30;;;;;;5076414;28;20228;-83
2021/12/24 03:39:29;;;;;;;20.87;8.70;;;6.30;97.30;;;;;;5075739;28;20986;-84
2021/12/24 03:41:55;;;;;;;18.87;7.90;;;6.30;97.30;;;;;;5093224;28;20464;-84
2021/12/24 03:44:30;;;;;;;21.13;8.57;;;6.30;97.30;;;;;;5075680;28;20182;-83
2021/12/24 03:47:10;;;;;;;19.87;9.30;;;6.30;97.30;;;;;;5074990;28;20523;-85
2021/12/24 03:49:44;;;;;;;18.13;8.77;;;6.30;97.30;;;;;;5075279;28;20764;-85
2021/12/24 03:54:56;;;;;;;18.00;7.57;;;6.40;97.30;;;;;;5093482;28;20900;-86
2021/12/24 03:57:24;;;;;;;16.23;8.70;;;6.40;97.30;;;;;;5074912;28;20416;-86
2021/12/24 03:59:50;;;;;;;25.43;8.80;;;6.40;97.30;;;;;;5074993;28;20506;-85
2021/12/24 04:02:16;;;;;;;19.30;8.70;;;6.40;97.30;;;;;;5074678;28;20425;-86
2021/12/24 04:04:41;;;;;;;19.50;8.60;;;6.40;97.30;;;;;;5074601;28;20420;-86
2021/12/24 04:07:07;;;;;;;14.93;8.00;;;6.40;97.30;;;;;;5074572;28;20202;-86
2021/12/24 04:09:35;;;;;;;23.17;9.00;;;6.40;97.30;;;;;;5074818;28;20592;-86
2021/12/24 04:12:00;;;;;;;16.93;7.60;;;6.40;97.30;;;;;;5074372;28;20195;-85
2021/12/24 04:14:26;;;;;;;23.13;9.80;;;6.40;97.30;;;;;;5058870;28;20484;-85
2021/12/24 04:16:51;;;;;;;18.77;8.47;;;6.40;97.30;;;;;;5035052;28;20171;-85
2021/12/24 04:27:31;;;;;;;17.70;9.63;;;6.50;97.30;;;;;;4974684;28;20462;-85
2021/12/24 04:30:10;;;;;;;21.77;10.13;;;6.50;97.30;;;;;;5031686;28;20416;-85
2021/12/24 05:04:33;;;;;;;15.07;7.30;;;6.80;97.30;;;;;;5092394;28;21092;-87
2021/12/24 05:07:09;;;;;;;16.17;8.00;;;6.80;97.30;;;;;;5074074;28;20483;-85
2021/12/24 05:09:39;;;;;;;20.07;8.63;;;6.80;97.30;;;;;;5074122;28;20492;-85
2021/12/24 05:12:05;;;;;;;18.33;8.20;;;6.90;97.30;;;;;;5073519;28;20440;-87
2021/12/24 05:14:31;;;;;;;17.83;9.43;;;6.90;97.30;;;;;;5073920;28;20419;-86
2021/12/24 05:17:27;;;;;;;25.57;10.13;;;6.90;97.30;;;;;;5073437;28;20416;-87
2021/12/24 05:22:32;;;;;;;25.07;10.63;;;7.00;97.30;;;;;;5071389;28;20420;-90
2021/12/24 05:24:59;;;;;;;28.47;11.53;;;7.00;97.30;;;;;;5053269;28;20421;-90
2021/12/24 05:27:25;;;;;;;27.67;10.53;;;7.00;97.30;;;;;;5054444;28;20544;-89
2021/12/24 05:29:53;;;;;;;31.80;11.67;;;7.10;97.30;;;;;;5054457;28;20409;-90
2021/12/24 05:32:18;;;;;;;31.93;10.10;;;7.10;97.30;;;;;;5053955;28;20506;-89
2021/12/24 05:34:44;;;;;;;28.20;10.80;;;7.10;97.30;;;;;;5053744;28;20508;-86
2021/12/24 05:37:09;;;;;;;27.50;11.20;;;7.10;97.30;;;;;;5053950;28;20186;-86
2021/12/24 05:39:35;;;;;;;27.00;12.20;;;7.10;97.30;;;;;;5054345;28;20179;-86
2021/12/24 05:42:02;;;;;;;31.50;12.07;;;7.10;97.30;;;;;;5056042;28;20227;-88
2021/12/24 05:44:27;;;;;;;27.97;11.60;;;7.20;97.30;;;;;;5057482;28;20219;-86
2021/12/24 05:46:53;;;;;;;27.43;10.50;;;7.20;97.30;;;;;;5057579;28;20449;-86
2021/12/24 05:49:19;;;;;;;28.27;11.10;;;7.20;97.30;;;;;;5057432;28;20171;-86
2021/12/24 05:51:45;;;;;;;25.97;10.80;;;7.20;97.30;;;;;;5066072;28;20435;-85
2021/12/24 05:54:11;;;;;;;32.33;11.87;;;7.20;97.30;;;;;;5074020;28;20215;-86
2021/12/24 05:56:37;;;;;;;33.70;12.10;;;7.20;97.30;;;;;;5053876;28;20418;-89
2021/12/24 05:59:04;;;;;;;33.93;13.67;;;7.30;97.30;;;;;;5056175;28;20425;-86
2021/12/24 06:02:17;;;;;;;25.97;12.40;;;7.30;97.30;;;;;;5052236;28;20437;-86
2021/12/24 06:04:43;;;;;;;23.90;11.10;;;7.30;97.30;;;;;;5053555;28;20425;-87
2021/12/24 06:07:08;;;;;;;25.20;10.03;;;7.30;97.30;;;;;;5055325;28;20455;-87
2021/12/24 06:09:34;;;;;;;26.93;12.50;;;7.30;97.30;;;;;;5049746;28;20661;-86
2021/12/24 06:11:59;;;;;;;29.17;11.87;;;7.30;97.30;;;;;;5052888;28;20199;-88
2021/12/24 06:14:25;;;;;;;25.73;12.43;;;7.30;97.30;;;;;;5056172;28;20175;-87
2021/12/24 06:17:00;;;;;;;28.83;11.63;;;7.40;97.30;;;;;;5056517;28;20187;-88
2021/12/24 06:19:27;;;;;;;28.00;11.00;;;7.40;97.30;;;;;;5052484;28;20777;-86
2021/12/24 06:21:53;;;;;;;29.70;11.33;;;7.40;97.30;;;;;;5056646;28;20421;-87
2021/12/24 06:24:19;;;;;;;28.83;10.60;;;7.40;97.30;;;;;;5057003;28;20417;-88
2021/12/24 06:26:46;;;;;;;26.10;11.07;;;7.40;97.30;;;;;;5051303;28;20412;-90
2021/12/24 06:29:12;;;;;;;23.10;10.60;;;7.50;97.30;;;;;;5053979;28;20435;-90
2021/12/24 06:31:38;;;;;;;25.40;10.10;;;7.50;97.30;;;;;;5056589;28;20437;-87
2021/12/24 06:34:04;;;;;;;22.13;9.83;;;7.50;97.30;;;;;;5056617;28;20584;-88
2021/12/24 06:36:35;;;;;;;28.77;10.90;;;7.50;97.30;;;;;;5043020;28;20419;-87
2021/12/24 06:39:03;;;;;;;27.67;10.13;;;7.50;97.30;;;;;;5054455;28;20509;-87
2021/12/24 06:41:28;;;;;;;20.43;8.90;;;7.60;97.30;;;;;;5044931;28;20540;-87
2021/12/24 06:43:54;;;;;;;23.87;10.57;;;7.60;97.30;;;;;;5055589;28;20812;-86
2021/12/24 06:46:23;;;;;;;21.30;8.50;;;7.60;97.30;;;;;;5067003;28;20187;-88
2021/12/24 06:48:56;;;;;;;26.50;10.10;;;7.60;97.30;;;;;;5054563;28;20688;-86
2021/12/24 06:51:25;;;;;;;19.00;9.13;;;7.60;97.30;;;;;;5058020;28;20804;-86
2021/12/24 06:53:55;;;;;;;23.47;10.20;;;7.60;97.30;;;;;;5056105;28;20414;-87
2021/12/24 06:56:22;;;;;;;25.53;10.50;;;7.60;97.30;;;;;;5056759;28;20540;-87
2021/12/24 06:58:48;;;;;;;21.57;9.43;;;7.60;97.30;;;;;;5055588;28;20421;-86
2021/12/24 07:01:15;;;;;;;26.33;10.23;;;7.70;97.30;;;;;;5053343;28;20526;-86
2021/12/24 07:03:44;;;;;;;27.03;9.17;;;7.70;97.30;;;;;;5055368;28;20448;-87
2021/12/24 07:06:14;;;;;;;22.03;8.40;;;7.70;97.30;;;;;;5052628;28;20428;-88
2021/12/24 07:08:44;;;;;;;22.27;8.90;;;7.70;97.30;;;;;;5053989;28;20464;-86
2021/12/24 07:11:10;;;;;;;22.10;7.90;;;7.70;97.30;;;;;;5048395;28;20434;-86
2021/12/24 07:29:05;;;;;;;17.20;7.40;;;7.90;97.30;;;;;;5034441;28;20513;-88
2021/12/24 07:31:37;;;;;;;19.07;6.97;;;7.90;97.30;;;;;;5018317;28;20474;-88
2021/12/24 07:34:06;;;;;;;20.30;6.70;;;7.90;97.30;;;;;;5024416;28;20417;-88
2021/12/24 07:36:34;;;;;;;17.90;7.57;;;7.90;97.30;;;;;;5032808;28;20411;-87
2021/12/24 07:39:15;;;;;;;16.27;7.23;;;8.00;97.30;;;;;;5034437;28;20549;-87
2021/12/24 07:41:44;;;;;;;11.63;6.07;;;8.00;97.30;;;;;;5020040;28;20964;-88
2021/12/24 07:44:28;;;;;;;10.43;5.27;;;8.10;97.30;;;;;;5044686;28;20477;-88
2021/12/24 07:46:58;;;;;;;12.43;6.60;;;8.10;97.30;;;;;;5018548;28;20477;-87
2021/12/24 07:55:03;;;;;;;16.33;5.73;;;8.20;97.30;;;;;;5032739;28;20184;-87
2021/12/24 08:00:45;;;;;;;12.37;5.90;;;8.40;97.30;;;;;;5018556;28;20477;-87
2021/12/24 08:03:17;;;;;;;9.00;5.20;;;8.40;97.30;;;;;;5047531;28;20438;-86
2021/12/24 08:05:48;;;;;;;12.43;6.90;;;8.40;97.30;;;;;;5014149;28;20427;-88
2021/12/24 08:08:17;;;;;;;12.90;6.60;;;8.40;97.30;;;;;;5012678;28;20463;-88
2021/12/24 08:14:15;;;;;;;9.17;3.70;;;8.60;97.30;;;;;;5007114;28;20443;-88
2021/12/24 08:17:45;;;;;;;13.93;4.97;;;8.60;97.30;;;;;;5008160;28;20416;-89
2021/12/24 08:19:46;;;;;;;9.17;4.60;;;8.70;97.30;;;;;;5024015;28;20188;-88
2021/12/24 08:22:49;;;;;;;11.50;4.30;;;8.70;97.30;;;;;;5017335;28;21198;-88
2021/12/24 08:25:26;;;;;;;7.80;5.07;;;8.70;97.30;;;;;;4956839;28;20194;-88
2021/12/24 08:28:15;;;;;;;8.23;4.57;;;8.70;97.30;;;;;;4957449;28;20481;-88
2021/12/24 08:30:56;;;;;;;8.77;4.67;;;8.70;97.30;;;;;;4953241;28;21236;-86
2021/12/24 08:33:35;;;;;;;9.27;5.00;;;8.80;97.30;;;;;;4957585;28;20433;-87
2021/12/24 08:39:25;;;;;;;8.10;4.60;;;8.80;97.30;;;;;;4967404;28;20456;-86
2021/12/24 08:41:54;;;;;;;6.53;3.83;;;8.90;97.30;;;;;;5000230;28;20431;-87
2021/12/24 08:44:29;;;;;;;6.87;4.00;;;8.90;97.30;;;;;;5016366;28;20168;-86
2021/12/24 08:46:56;;;;;;;6.47;3.50;;;8.90;97.30;;;;;;5025342;28;20456;-87
2021/12/24 08:49:23;;;;;;;7.37;3.90;;;8.90;97.30;;;;;;5016938;28;20411;-87
2021/12/24 08:51:50;;;;;;;8.90;3.70;;;8.90;97.30;;;;;;5016085;28;20427;-87
2021/12/24 08:54:24;;;;;;;9.60;4.37;;;8.90;97.30;;;;;;5017683;28;20503;-88
2021/12/24 08:57:05;;;;;;;11.10;3.87;;;8.90;97.30;;;;;;5014028;28;20453;-86
2021/12/24 08:59:33;;;;;;;10.43;4.43;;;8.90;97.30;;;;;;5011205;28;20421;-86
2021/12/24 09:02:15;;;;;;;8.93;4.20;;;8.90;97.30;;;;;;5016173;28;20443;-85
2021/12/24 09:04:44;;;;;;;5.67;3.70;;;9.00;97.30;;;;;;5016895;28;20407;-86
2021/12/24 09:07:35;;;;;;;8.50;3.50;;;9.00;97.30;;;;;;5017474;28;20691;-86
2021/12/24 09:10:05;;;;;;;6.43;3.13;;;9.00;97.30;;;;;;5006428;28;20420;-85
2021/12/24 09:12:33;;;;;;;7.50;4.27;;;9.00;97.30;;;;;;5027549;28;20917;-87
2021/12/24 09:15:06;;;;;;;4.17;2.90;;;9.00;97.30;;;;;;5036531;28;20583;-87
2021/12/24 09:17:34;;;;;;;5.50;3.27;;;9.00;97.30;;;;;;5040133;28;20406;-87
2021/12/24 09:20:17;;;;;;;6.43;4.23;;;9.10;97.30;;;;;;5041294;28;20430;-84
2021/12/24 09:22:47;;;;;;;6.50;3.30;;;9.10;97.30;;;;;;5040501;28;20434;-87
2021/12/24 09:25:16;;;;;;;6.00;3.57;;;9.20;97.30;;;;;;5041571;28;20414;-86
2021/12/24 09:27:44;;;;;;;4.47;3.13;;;9.30;97.30;;;;;;5039664;28;20481;-87
2021/12/24 09:30:13;;;;;;;6.20;3.20;;;9.40;97.30;;;;;;5041515;28;20425;-88
2021/12/24 09:32:46;;;;;;;8.20;3.30;;;9.40;97.30;;;;;;5041614;28;20481;-88
2021/12/24 09:35:14;;;;;;;5.73;3.67;;;9.50;97.30;;;;;;5042066;28;20414;-87
2021/12/24 09:37:41;;;;;;;8.33;4.03;;;9.60;97.30;;;;;;5040316;28;20483;-87
2021/12/24 09:40:17;;;;;;;4.63;2.60;;;9.60;97.30;;;;;;5039837;28;20418;-87
2021/12/24 09:42:43;;;;;;;6.07;3.17;;;9.70;97.30;;;;;;5041978;28;20530;-87
2021/12/24 09:45:10;;;;;;;5.10;3.17;;;9.70;97.30;;;;;;5041978;28;21047;-89
2021/12/24 09:47:36;;;;;;;4.60;3.00;;;9.70;97.30;;;;;;5022725;28;20842;-85
2021/12/24 09:50:03;;;;;;;6.90;3.50;;;9.80;97.30;;;;;;5039208;28;20407;-85
2021/12/24 09:52:30;;;;;;;4.83;3.10;;;9.90;97.30;;;;;;5018468;28;20446;-85
2021/12/24 09:54:56;;;;;;;4.13;2.53;;;9.80;97.30;;;;;;5019702;28;20430;-86
2021/12/24 09:57:22;;;;;;;5.20;3.10;;;9.90;97.30;;;;;;5020886;28;20427;-86
2021/12/24 09:59:49;;;;;;;5.10;3.17;;;9.80;97.30;;;;;;5021136;28;20191;-88
2021/12/24 10:02:17;;;;;;;3.60;2.63;;;9.80;97.30;;;;;;5020511;28;20682;-88
2021/12/24 10:04:44;;;;;;;4.83;2.67;;;9.70;97.30;;;;;;5021508;28;20449;-87
2021/12/24 10:07:16;;;;;;;5.00;2.87;;;9.70;97.30;;;;;;5020481;28;20471;-85
2021/12/24 10:09:44;;;;;;;6.20;2.67;;;9.70;97.30;;;;;;5020350;28;20624;-85
2021/12/24 10:12:22;;;;;;;8.50;2.87;;;9.70;97.30;;;;;;5019402;28;20435;-88
2021/12/24 10:15:14;;;;;;;5.33;2.87;;;9.70;97.30;;;;;;5035433;28;20425;-86
2021/12/24 10:17:56;;;;;;;3.73;2.50;;;9.70;97.30;;;;;;5020083;28;20438;-87
2021/12/24 10:20:24;;;;;;;3.97;2.70;;;9.70;97.30;;;;;;5018903;28;20415;-88
2021/12/24 10:22:54;;;;;;;5.00;2.50;;;9.70;97.30;;;;;;5016263;28;20451;-85
2021/12/24 10:25:33;;;;;;;4.33;2.70;;;9.70;97.30;;;;;;5017415;28;20422;-87
2021/12/24 10:28:12;;;;;;;4.47;3.00;;;9.70;97.30;;;;;;5005510;28;20578;-87
2021/12/24 10:30:47;;;;;;;4.57;2.33;;;9.70;97.30;;;;;;4984836;28;20422;-86
2021/12/24 10:33:13;;;;;;;3.10;2.27;;;9.70;97.30;;;;;;4976947;28;21347;-86
2021/12/24 10:35:59;;;;;;;7.30;2.93;;;9.70;97.30;;;;;;4976965;28;20842;-84
2021/12/24 10:38:25;;;;;;;3.97;2.83;;;9.70;97.30;;;;;;4988354;28;20823;-90
2021/12/24 10:40:52;;;;;;;6.20;2.80;;;9.80;97.30;;;;;;4987727;28;20430;-88
2021/12/24 10:43:33;;;;;;;3.87;2.57;;;9.80;97.30;;;;;;4985057;28;20186;-87
2021/12/24 10:46:11;;;;;;;4.30;2.90;;;9.80;97.30;;;;;;4985709;28;20802;-85
2021/12/24 10:48:48;;;;;;;8.43;3.27;;;9.80;97.30;;;;;;4989586;28;20496;-88
2021/12/24 10:51:53;;;;;;;5.17;2.70;;;9.80;97.30;;;;;;4989378;28;20452;-87
2021/12/24 10:54:06;;;;;;;6.00;3.20;;;9.80;97.30;;;;;;4991667;28;20728;-87
2021/12/24 10:56:35;;;;;;;5.57;3.47;;;9.80;97.30;;;;;;4996758;28;20441;-89
2021/12/24 10:59:05;;;;;;;5.10;3.00;;;9.80;97.30;;;;;;4997062;28;20435;-86
2021/12/24 11:01:36;;;;;;;6.27;3.10;;;9.80;97.30;;;;;;4976731;28;20451;-87
2021/12/24 11:04:05;;;;;;;6.27;2.90;;;9.90;97.30;;;;;;4982670;28;20541;-88
2021/12/24 11:06:33;;;;;;;4.27;2.90;;;9.90;97.30;;;;;;4993931;28;20433;-86
2021/12/24 11:09:45;;;;;;;7.03;3.00;;;9.90;97.30;;;;;;5003844;28;21010;-86
2021/12/24 11:12:34;;;;;;;6.57;3.13;;;9.90;97.30;;;;;;4981141;28;20456;-86
2021/12/24 11:15:21;;;;;;;6.23;3.20;;;9.90;97.30;;;;;;4995640;28;20432;-88
2021/12/24 11:18:14;;;;;;;5.70;3.23;;;9.90;97.30;;;;;;4991914;28;20438;-86
2021/12/24 11:20:55;;;;;;;5.90;3.73;;;9.90;97.30;;;;;;4975095;28;20963;-85
2021/12/24 11:23:26;;;;;;;6.30;3.00;;;9.90;97.30;;;;;;4980586;28;21018;-87
2021/12/24 11:26:07;;;;;;;3.30;2.60;;;9.90;97.30;;;;;;4994519;28;20417;-86
2021/12/24 11:28:34;;;;;;;5.53;3.20;;;9.90;97.30;;;;;;4995717;28;20623;-87
2021/12/24 11:31:08;;;;;;;10.40;3.57;;;9.90;97.30;;;;;;4995854;28;20516;-87
2021/12/24 11:33:36;;;;;;;7.00;2.83;;;9.90;97.30;;;;;;4997159;28;20401;-87
2021/12/24 11:36:07;;;;;;;11.87;5.00;;;10.00;97.30;;;;;;4996606;28;20421;-89
2021/12/24 11:38:39;;;;;;;7.60;3.20;;;10.00;97.30;;;;;;4996702;28;20428;-88
2021/12/24 11:41:07;;;;;;;7.87;3.67;;;10.00;97.30;;;;;;4996880;28;20437;-88
2021/12/24 11:43:36;;;;;;;9.33;4.40;;;10.00;97.30;;;;;;4997788;28;20467;-87
2021/12/24 11:46:04;;;;;;;5.73;3.27;;;10.00;97.30;;;;;;4996692;28;20421;-87
2021/12/24 11:48:33;;;;;;;5.00;3.17;;;10.00;97.30;;;;;;4998111;28;20458;-87
2021/12/24 11:51:26;;;;;;;8.63;3.47;;;10.10;97.30;;;;;;4995597;28;20507;-87
2021/12/24 11:54:00;;;;;;;6.83;3.63;;;10.10;97.30;;;;;;4985253;28;20425;-84
2021/12/24 11:56:25;;;;;;;4.67;2.93;;;10.10;97.30;;;;;;4995084;28;20449;-88
2021/12/24 11:58:53;;;;;;;7.40;2.87;;;10.10;97.30;;;;;;4993333;28;20483;-88
2021/12/24 12:01:27;;;;;;;6.10;3.60;;;10.10;97.30;;;;;;4983089;28;20766;-86
2021/12/24 12:03:58;;;;;;;8.80;4.13;;;10.10;97.30;;;;;;4989197;28;20777;-83
2021/12/24 12:06:23;;;;;;;9.33;3.33;;;10.10;97.30;;;;;;4986511;28;20820;-87
2021/12/24 12:09:00;;;;;;;9.13;3.80;;;10.10;97.30;;;;;;4993852;28;20445;-84
2021/12/24 12:11:28;;;;;;;14.13;7.00;;;10.00;97.30;;;;;;4992592;28;20197;-87
2021/12/24 12:13:57;;;;;;;6.47;3.10;;;10.10;97.30;;;;;;4983090;28;20416;-84
2021/12/24 12:16:48;;;;;;;7.30;3.37;;;10.00;97.30;;;;;;4993667;28;20440;-84
2021/12/24 12:19:30;;;;;;;5.13;3.37;;;10.00;97.30;;;;;;4974639;28;20414;-86
2021/12/24 12:27:35;;;;;;;7.73;3.77;;;9.90;97.30;;;;;;4999348;28;20835;-86
2021/12/24 12:30:36;;;;;;;8.97;3.53;;;9.90;97.30;;;;;;4998635;28;20747;-88
2021/12/24 12:33:31;;;;;;;10.10;3.90;;;9.90;97.30;;;;;;4996770;28;20439;-85
2021/12/24 12:35:59;;;;;;;8.23;5.20;;;9.90;97.30;;;;;;4996337;28;20420;-86
2021/12/24 12:38:30;;;;;;;5.27;3.47;;;9.80;97.30;;;;;;4996331;28;20499;-86
2021/12/24 12:41:21;;;;;;;8.63;3.50;;;9.80;97.30;;;;;;4996026;28;20415;-86
2021/12/24 12:43:49;;;;;;;9.60;4.57;;;9.90;97.30;;;;;;4996572;28;20419;-85
2021/12/24 12:46:50;;;;;;;8.43;4.37;;;9.90;97.30;;;;;;4996713;28;20450;-88
2021/12/24 12:49:35;;;;;;;8.07;4.17;;;9.80;97.30;;;;;;4994452;28;21067;-86
2021/12/24 12:52:20;;;;;;;7.27;3.20;;;9.80;97.30;;;;;;4995463;28;20514;-86
2021/12/24 12:54:51;;;;;;;7.97;4.37;;;9.80;97.30;;;;;;4995855;28;20423;-86
2021/12/24 12:57:23;;;;;;;7.67;4.23;;;9.80;97.30;;;;;;5009825;28;20415;-88
2021/12/24 13:00:07;;;;;;;11.80;4.70;;;9.80;97.30;;;;;;5015291;28;20435;-86
2021/12/24 13:03:16;;;;;;;7.07;3.90;;;9.80;97.30;;;;;;5015257;28;21026;-86
2021/12/24 13:05:41;;;;;;;8.47;3.83;;;9.70;97.30;;;;;;5015924;28;20838;-86
2021/12/24 13:08:22;;;;;;;5.83;3.50;;;9.70;97.30;;;;;;5015573;28;20455;-87
2021/12/24 13:11:07;;;;;;;11.30;4.47;;;9.70;97.30;;;;;;5015318;28;20269;-85
2021/12/24 13:13:55;;;;;;;8.97;4.10;;;9.70;97.30;;;;;;5015848;28;20419;-88
2021/12/24 13:17:25;;;;;;;11.60;4.70;;;9.70;97.30;;;;;;5029714;28;20487;-87
2021/12/24 13:19:58;;;;;;;8.03;4.03;;;9.70;97.30;;;;;;5044822;28;20442;-86
2021/12/24 13:22:28;;;;;;;6.30;3.53;;;9.70;97.30;;;;;;5047482;28;20450;-86
2021/12/24 13:25:13;;;;;;;9.40;4.40;;;9.70;97.30;;;;;;5016171;28;20415;-85
2021/12/24 13:27:48;;;;;;;11.63;4.40;;;9.70;97.30;;;;;;5015440;28;20479;-86
2021/12/24 13:30:19;;;;;;;17.00;5.03;;;9.60;97.30;;;;;;5015579;28;20446;-86
2021/12/24 13:33:07;;;;;;;7.80;3.87;;;9.60;97.30;;;;;;5015319;28;20535;-86
2021/12/24 13:35:42;;;;;;;7.07;3.83;;;9.70;97.30;;;;;;5015350;28;20407;-87
2021/12/24 13:38:12;;;;;;;12.87;5.20;;;9.60;97.30;;;;;;5015173;28;20423;-86
2021/12/24 13:40:38;;;;;;;5.93;3.50;;;9.60;97.30;;;;;;5015272;28;20782;-85
2021/12/24 13:43:07;;;;;;;7.77;3.90;;;9.60;97.30;;;;;;5015758;28;20431;-87
2021/12/24 13:45:36;;;;;;;10.90;4.23;;;9.60;97.30;;;;;;5014376;28;20235;-88
2021/12/24 13:48:12;;;;;;;9.63;3.93;;;9.60;97.30;;;;;;5031848;28;20538;-85
2021/12/24 13:56:22;;;;;;;9.47;3.90;;;9.50;97.30;;;;;;5032657;28;20394;-85
2021/12/24 13:58:56;;;;;;;8.03;3.87;;;9.50;97.30;;;;;;5014880;28;20465;-86
2021/12/24 14:01:32;;;;;;;9.00;3.63;;;9.50;97.30;;;;;;5014284;28;20438;-85
2021/12/24 14:04:00;;;;;;;7.67;4.17;;;9.50;97.30;;;;;;5017117;28;20425;-87
2021/12/24 14:06:44;;;;;;;10.97;5.00;;;9.50;97.30;;;;;;5018373;28;20434;-87
2021/12/24 14:09:43;;;;;;;8.97;3.90;;;9.50;97.30;;;;;;5018753;28;20450;-87
2021/12/24 14:12:11;;;;;;;7.00;3.70;;;9.50;97.30;;;;;;5009298;28;20454;-87
2021/12/24 14:15:06;;;;;;;13.27;3.97;;;9.50;97.30;;;;;;5035374;28;20422;-88
2021/12/24 14:20:38;;;;;;;9.67;4.20;;;9.40;97.30;;;;;;5040772;28;20442;-86
2021/12/24 14:23:16;;;;;;;10.40;3.70;;;9.40;97.30;;;;;;5018131;28;20443;-88
2021/12/24 14:25:57;;;;;;;7.17;3.90;;;9.40;97.30;;;;;;5017951;28;20782;-86
2021/12/24 14:28:24;;;;;;;7.30;4.13;;;9.30;97.30;;;;;;5022540;28;20496;-88
2021/12/24 14:31:00;;;;;;;10.10;4.47;;;9.20;97.30;;;;;;5020610;28;20466;-87
2021/12/24 14:33:30;;;;;;;7.40;4.03;;;9.10;97.30;;;;;;5021652;28;20429;-85
2021/12/24 14:35:56;;;;;;;7.50;4.50;;;9.00;97.30;;;;;;5021279;28;20792;-86
2021/12/24 14:38:25;;;;;;;9.07;4.47;;;9.00;97.30;;;;;;5022115;28;20498;-87
2021/12/24 14:40:56;;;;;;;14.40;4.40;;;9.00;97.30;;;;;;5032500;28;20572;-88
2021/12/24 14:43:22;;;;;;;8.37;3.93;;;8.90;97.30;;;;;;5015519;28;20407;-89
2021/12/24 14:45:49;;;;;;;9.60;4.77;;;8.90;97.30;;;;;;5016819;28;20439;-89
2021/12/24 14:48:26;;;;;;;7.30;4.17;;;8.80;97.30;;;;;;5019857;28;20200;-86
2021/12/24 14:51:03;;;;;;;11.27;4.53;;;8.80;97.30;;;;;;5020092;28;20419;-87
2021/12/24 14:53:31;;;;;;;7.00;3.77;;;8.80;97.30;;;;;;5019485;28;20506;-86
2021/12/24 14:56:08;;;;;;;30.30;9.13;;;8.80;97.30;;;;;;5016076;28;20431;-86
2021/12/24 14:58:38;;;;;;;22.37;8.17;;;9.00;97.30;;;;;;5016536;28;20480;-86
2021/12/24 15:01:14;;;;;;;18.37;6.67;;;9.10;97.30;;;;;;5033540;28;20467;-87
2021/12/24 15:03:45;;;;;;;18.07;6.77;;;9.00;97.30;;;;;;5022492;28;20430;-88
2021/12/24 15:06:20;;;;;;;14.90;9.43;;;8.90;97.30;;;;;;5017173;28;20473;-86
2021/12/24 15:08:47;;;;;;;15.10;7.30;;;8.80;97.30;;;;;;5019680;28;20463;-87
2021/12/24 15:11:22;;;;;;;13.10;4.47;;;8.80;97.30;;;;;;5018911;28;20439;-88
2021/12/24 15:13:50;;;;;;;3.40;2.07;;;8.80;97.30;;;;;;5032364;28;20510;-88
2021/12/24 15:16:17;;;;;;;9.23;2.77;;;8.50;97.30;;;;;;5021276;28;20407;-87
2021/12/24 15:18:53;;;;;;;1.67;1.43;;;8.10;97.30;;;;;;5018145;28;20794;-88
2021/12/24 15:21:21;;;;;;;1.10;0.93;;;7.70;97.30;;;;;;5052037;28;20461;-88
2021/12/24 15:23:48;;;;;;;0.93;0.80;;;7.30;97.30;;;;;;5017649;28;20407;-88
2021/12/24 15:26:14;;;;;;;2.10;0.83;;;7.00;97.30;;;;;;5036730;28;20468;-86
2021/12/24 15:28:42;;;;;;;2.00;1.10;;;6.80;97.30;;;;;;5017768;28;20479;-87
2021/12/24 15:31:08;;;;;;;0.90;0.90;;;6.60;97.30;;;;;;5051748;28;20427;-87
2021/12/24 15:33:33;;;;;;;1.10;0.90;;;6.50;97.30;;;;;;5018084;28;20431;-87
2021/12/24 15:35:59;;;;;;;1.23;1.00;;;6.40;97.30;;;;;;5018089;28;20460;-88
2021/12/24 15:38:25;;;;;;;1.10;1.00;;;6.40;97.30;;;;;;5017131;28;20181;-89
2021/12/24 15:40:51;;;;;;;1.17;1.07;;;6.20;97.30;;;;;;5012754;28;20416;-89
2021/12/24 15:43:18;;;;;;;1.00;0.90;;;6.20;97.30;;;;;;5015702;28;20204;-87
2021/12/24 15:45:44;;;;;;;1.07;0.97;;;6.10;97.30;;;;;;5015610;28;20180;-87
2021/12/24 15:48:10;;;;;;;1.00;0.93;;;6.00;97.30;;;;;;5033447;28;20459;-88